Time;durP1;ratioP1;P1;durP2;ratioP2;P2;SDS_P1;SDS_P2;PMS_P1;PMS_P2;Temp;Humidity;BMP_temperature;BMP_pressure;BME280_temperature;BME280_humidity;BME280_pressure;Samples;Min_cycle;Max_cycle;Signal;HPM_P1;HPM_P2
2022/05/29 00:00:34;;;;;;;6.03;2.13;;;;;;;14.92;40.95;100466.00;4117859;28;20050;-65
2022/05/29 00:02:37;;;;;;;6.53;2.42;;;;;;;14.91;40.35;100467.78;4128124;28;20506;-65
2022/05/29 00:04:40;;;;;;;7.68;2.35;;;;;;;14.95;40.91;100464.28;4122001;28;20133;-65
2022/05/29 00:06:46;;;;;;;10.05;2.40;;;;;;;14.93;40.88;100466.00;4121370;28;20437;-65
2022/05/29 00:08:50;;;;;;;8.13;2.30;;;;;;;14.94;41.22;100467.75;4122400;28;20034;-65
2022/05/29 00:10:53;;;;;;;8.23;2.42;;;;;;;14.82;41.37;100452.97;4122287;28;20129;-64
2022/05/29 00:12:56;;;;;;;8.38;2.40;;;;;;;14.91;40.96;100465.16;4122998;28;20049;-64
2022/05/29 00:15:00;;;;;;;6.63;2.33;;;;;;;14.91;40.77;100453.78;4120625;28;20560;-65
2022/05/29 00:17:04;;;;;;;6.40;2.40;;;;;;;14.87;41.07;100458.19;4122860;28;20042;-65
2022/05/29 00:19:07;;;;;;;6.65;2.20;;;;;;;14.66;42.06;100446.91;4124084;28;20402;-65
2022/05/29 00:21:10;;;;;;;10.38;2.50;;;;;;;14.62;41.76;100449.56;4123067;28;20125;-65
2022/05/29 00:23:13;;;;;;;8.23;2.58;;;;;;;14.62;41.59;100450.41;4114344;28;20494;-65
2022/05/29 00:25:16;;;;;;;7.28;1.90;;;;;;;14.56;42.18;100445.16;4122566;28;20129;-65
2022/05/29 00:27:19;;;;;;;8.23;2.38;;;;;;;14.66;42.08;100444.28;4121502;28;20506;-65
2022/05/29 00:29:22;;;;;;;8.68;2.47;;;;;;;14.75;42.10;100443.41;4120910;28;20070;-65
2022/05/29 00:31:29;;;;;;;10.27;2.88;;;;;;;14.66;41.98;100435.59;4120383;28;20433;-64
2022/05/29 00:33:32;;;;;;;9.48;2.08;;;;;;;14.48;42.80;100447.81;4118807;28;20406;-64
2022/05/29 00:35:37;;;;;;;8.20;2.33;;;;;;;14.55;41.97;100446.03;4140679;28;20134;-65
2022/05/29 00:37:41;;;;;;;;;;;;;;;14.41;42.39;100438.22;4118516;28;20082;-64
2022/05/29 00:39:50;;;;;;;9.52;2.60;;;;;;;14.44;42.75;100443.44;4117677;28;19984;-65
2022/05/29 00:41:54;;;;;;;8.30;2.28;;;;;;;14.41;42.55;100440.84;4120482;28;20046;-65
2022/05/29 00:44:12;;;;;;;7.60;2.40;;;;;;;14.48;42.77;100444.31;4136969;28;20530;-65
2022/05/29 00:46:15;;;;;;;7.72;2.20;;;;;;;14.35;42.93;100439.97;4123893;28;20414;-64
2022/05/29 00:48:20;;;;;;;6.90;1.92;;;;;;;14.34;43.41;100438.22;4122212;28;20379;-64
2022/05/29 00:50:24;;;;;;;7.38;2.40;;;;;;;14.38;42.97;100434.72;4120774;28;20039;-64
2022/05/29 00:52:29;;;;;;;8.57;2.63;;;;;;;14.28;43.34;100440.00;4128828;28;20049;-64
2022/05/29 00:54:37;;;;;;;;;;;;;;;14.19;43.61;100436.50;4129873;28;20035;-64
2022/05/29 00:56:41;;;;;;;6.93;2.55;;;;;;;14.28;43.77;100428.63;4133258;28;19988;-64
2022/05/29 00:58:45;;;;;;;13.07;2.50;;;;;;;14.30;43.11;100430.38;4128189;28;20034;-64
2022/05/29 01:00:49;;;;;;;7.73;2.30;;;;;;;14.37;43.56;100427.75;4125964;28;20027;-65
2022/05/29 01:02:53;;;;;;;10.05;2.65;;;;;;;14.37;43.12;100422.53;4118417;28;20340;-65
2022/05/29 01:04:58;;;;;;;6.85;2.40;;;;;;;14.26;43.67;100420.78;4128134;28;20513;-64
2022/05/29 01:07:02;;;;;;;11.05;2.60;;;;;;;14.20;44.37;100425.19;4128688;28;20218;-64
2022/05/29 01:09:07;;;;;;;12.85;3.03;;;;;;;14.13;43.86;100422.59;4126545;28;20505;-65
2022/05/29 01:11:30;;;;;;;9.27;2.92;;;;;;;14.14;44.42;100415.59;4125270;28;20102;-64
2022/05/29 01:13:42;;;;;;;8.45;2.78;;;;;;;14.09;44.51;100422.56;4119561;28;20073;-64
2022/05/29 01:15:55;;;;;;;10.48;2.70;;;;;;;14.08;44.71;100419.09;4128583;28;20034;-65
2022/05/29 01:18:11;;;;;;;7.43;2.47;;;;;;;14.07;44.62;100413.88;4124394;28;20085;-64
2022/05/29 01:20:38;;;;;;;8.02;2.50;;;;;;;14.07;44.06;100419.09;4123563;28;20039;-64
2022/05/29 01:23:07;;;;;;;10.45;2.28;;;;;;;13.96;44.57;100425.19;4117701;28;20038;-64
2022/05/29 01:25:49;;;;;;;7.57;2.80;;;;;;;13.98;44.56;100426.94;4124121;28;20043;-64
2022/05/29 01:28:08;;;;;;;8.43;2.67;;;;;;;14.04;44.73;100413.88;4126470;28;20483;-64
2022/05/29 01:30:15;;;;;;;11.15;3.08;;;;;;;13.95;44.94;100426.06;4129737;28;20049;-64
2022/05/29 01:32:25;;;;;;;8.75;2.88;;;;;;;13.91;44.77;100426.06;4128299;28;20125;-64
2022/05/29 01:34:35;;;;;;;12.43;3.03;;;;;;;13.84;45.04;100422.56;4123505;28;20560;-64
2022/05/29 01:36:53;;;;;;;9.02;3.17;;;;;;;13.87;44.78;100412.13;4125584;28;20046;-64
2022/05/29 01:39:01;;;;;;;7.70;2.33;;;;;;;13.76;45.72;100413.88;4119155;28;20050;-64
2022/05/29 01:41:09;;;;;;;8.88;2.78;;;;;;;13.82;45.57;100411.25;4126797;28;20042;-64
2022/05/29 01:43:21;;;;;;;10.75;3.05;;;;;;;13.85;45.21;100408.63;4118417;28;20042;-64
2022/05/29 01:45:53;;;;;;;9.77;2.42;;;;;;;13.77;45.57;100410.41;4125243;28;20046;-64
2022/05/29 01:48:03;;;;;;;7.93;2.70;;;;;;;13.77;45.81;100411.25;4133335;28;20050;-64
2022/05/29 01:50:11;;;;;;;8.63;2.75;;;;;;;13.76;45.46;100408.66;4130430;28;20049;-63
2022/05/29 01:52:19;;;;;;;6.50;2.25;;;;;;;13.70;45.96;100403.44;4125851;28;20531;-64
2022/05/29 01:54:28;;;;;;;11.10;3.22;;;;;;;13.63;46.22;100406.91;4119390;28;21377;-64
2022/05/29 01:56:34;;;;;;;8.00;2.40;;;;;;;13.64;45.77;100408.63;4122482;28;20446;-64
2022/05/29 01:58:41;;;;;;;11.07;2.58;;;;;;;13.63;45.82;100407.75;4102302;28;20380;-63
2022/05/29 02:00:47;;;;;;;9.52;3.05;;;;;;;13.61;45.92;100406.91;4122414;28;20453;-64
2022/05/29 02:02:53;;;;;;;9.43;2.78;;;;;;;13.56;45.94;100404.25;4121369;28;20413;-64
2022/05/29 02:05:02;;;;;;;5.38;2.67;;;;;;;13.58;46.03;100402.53;4128458;28;20050;-64
2022/05/29 02:09:36;;;;;;;7.65;2.40;;;;;;;13.52;46.41;100397.31;4122663;28;20137;-63
2022/05/29 02:11:39;;;;;;;10.25;3.05;;;;;;;13.52;46.64;100386.88;4123511;28;20031;-64
2022/05/29 02:13:47;;;;;;;12.30;3.20;;;;;;;13.53;46.81;100385.13;4125237;28;21679;-63
2022/05/29 02:15:55;;;;;;;8.25;2.42;;;;;;;13.58;46.58;100383.38;4118154;28;20109;-63
2022/05/29 02:18:02;;;;;;;9.02;2.38;;;;;;;13.58;46.37;100378.13;4123831;28;20054;-63
2022/05/29 02:20:11;;;;;;;14.65;3.38;;;;;;;13.56;46.43;100385.13;4130173;28;20048;-64
2022/05/29 02:22:21;;;;;;;12.60;3.10;;;;;;;13.47;46.70;100378.16;4116659;28;20417;-64
2022/05/29 02:24:37;;;;;;;9.65;2.92;;;;;;;13.58;46.50;100389.47;4122756;28;20042;-64
2022/05/29 02:26:55;;;;;;;6.38;2.40;;;;;;;13.39;46.98;100385.97;4121949;28;20039;-63
2022/05/29 02:29:05;;;;;;;8.02;3.05;;;;;;;13.50;46.90;100385.97;4122238;28;20066;-63
2022/05/29 02:31:17;;;;;;;10.10;2.90;;;;;;;13.49;46.32;100386.88;4121705;28;20073;-63
2022/05/29 02:33:26;;;;;;;5.95;2.10;;;;;;;13.33;46.96;100385.94;4116411;28;20038;-64
2022/05/29 02:35:36;;;;;;;9.88;2.55;;;;;;;13.39;46.94;100388.59;4131387;28;20138;-64
2022/05/29 02:37:45;;;;;;;10.25;2.85;;;;;;;13.37;47.30;100389.44;4124108;28;20043;-64
2022/05/29 02:39:56;;;;;;;13.80;2.40;;;;;;;13.47;46.98;100383.38;4126128;28;20026;-63
2022/05/29 02:42:09;;;;;;;10.18;3.08;;;;;;;13.43;47.23;100379.91;4122637;28;20066;-64
2022/05/29 02:44:23;;;;;;;7.70;2.45;;;;;;;13.37;47.50;100374.66;4120824;28;20513;-63
2022/05/29 02:46:32;;;;;;;11.68;2.78;;;;;;;13.39;47.62;100372.03;4125677;28;20517;-63
2022/05/29 02:48:43;;;;;;;7.07;2.70;;;;;;;13.38;47.67;100375.53;4131240;28;20045;-63
2022/05/29 02:50:54;;;;;;;10.57;2.72;;;;;;;13.37;47.32;100372.03;4131433;28;20048;-63
2022/05/29 02:53:01;;;;;;;13.90;2.95;;;;;;;13.32;47.36;100365.06;4124596;28;20113;-63
2022/05/29 02:55:05;;;;;;;8.27;3.08;;;;;;;13.25;47.65;100365.03;4130509;28;20130;-63
2022/05/29 02:57:09;;;;;;;7.65;3.08;;;;;;;13.30;47.62;100359.81;4124411;28;20038;-63
2022/05/29 02:59:12;;;;;;;8.57;2.92;;;;;;;13.28;47.29;100359.81;4128057;28;20130;-64
2022/05/29 03:01:25;;;;;;;10.40;2.63;;;;;;;13.18;47.34;100357.19;4122070;28;20052;-64
2022/05/29 03:03:33;;;;;;;11.20;3.22;;;;;;;13.15;47.79;100350.22;4123442;28;20158;-63
2022/05/29 03:05:46;;;;;;;8.40;2.35;;;;;;;13.13;47.84;100359.78;4121893;28;20049;-64
2022/05/29 03:08:03;;;;;;;9.70;2.83;;;;;;;13.23;47.53;100358.94;4124255;28;20068;-63
2022/05/29 03:10:15;;;;;;;5.72;2.33;;;;;;;13.13;48.13;100354.56;4128756;28;20069;-63
2022/05/29 03:12:31;;;;;;;9.93;2.92;;;;;;;13.24;48.06;100357.19;4115220;28;20050;-64
2022/05/29 03:14:43;;;;;;;13.65;3.30;;;;;;;13.23;47.70;100352.84;4112262;28;20085;-63
2022/05/29 03:16:57;;;;;;;11.55;2.85;;;;;;;13.35;47.80;100354.66;4119817;28;20080;-63
2022/05/29 03:19:11;;;;;;;8.93;2.58;;;;;;;13.29;47.67;100350.25;4115455;28;20041;-64
2022/05/29 03:21:24;;;;;;;8.20;2.30;;;;;;;13.13;47.91;100354.56;4129150;28;20128;-64
2022/05/29 03:23:37;;;;;;;7.47;2.58;;;;;;;13.02;48.24;100353.66;4117178;28;20047;-64
2022/05/29 03:25:44;;;;;;;9.25;2.70;;;;;;;13.00;48.26;100358.03;4131850;28;20413;-64
2022/05/29 03:27:49;;;;;;;10.82;2.70;;;;;;;12.91;48.92;100354.50;4129788;28;20387;-64
2022/05/29 03:29:59;;;;;;;6.72;2.65;;;;;;;13.03;48.62;100353.69;4124750;28;20045;-64
2022/05/29 03:32:05;;;;;;;8.05;2.50;;;;;;;13.00;48.58;100355.41;4127095;28;20358;-64
2022/05/29 03:34:10;;;;;;;9.98;3.17;;;;;;;13.00;48.99;100355.41;4118989;28;20049;-63
2022/05/29 03:36:14;;;;;;;8.98;2.75;;;;;;;12.92;48.73;100356.25;4123540;28;20035;-64
2022/05/29 03:38:17;;;;;;;11.88;3.03;;;;;;;12.91;49.19;100357.13;4118191;28;20449;-63
2022/05/29 03:40:25;;;;;;;8.25;2.33;;;;;;;12.91;48.70;100349.28;4125938;28;20046;-63
2022/05/29 03:42:27;;;;;;;;;;;;;;;12.89;49.30;100351.03;4104656;28;20050;-63
2022/05/29 03:44:30;;;;;;;7.78;2.08;;;;;;;12.86;49.02;100350.16;4123350;28;20296;-64
2022/05/29 03:46:33;;;;;;;8.63;2.75;;;;;;;12.95;48.78;100354.53;4126930;28;20034;-65
2022/05/29 03:48:37;;;;;;;12.15;3.20;;;;;;;12.82;49.19;100359.72;4127366;28;20058;-64
2022/05/29 03:50:40;;;;;;;10.20;3.38;;;;;;;12.75;49.43;100353.59;4120203;28;20038;-64
2022/05/29 03:52:44;;;;;;;9.27;3.00;;;;;;;12.81;49.10;100350.13;4122903;28;20125;-64
2022/05/29 03:54:47;;;;;;;8.27;2.47;;;;;;;12.83;49.33;100356.22;4129451;28;20137;-64
2022/05/29 03:56:50;;;;;;;9.93;2.97;;;;;;;12.79;49.66;100358.81;4121444;28;20038;-63
2022/05/29 03:58:53;;;;;;;12.77;3.00;;;;;;;12.86;48.89;100358.84;4134147;28;20453;-64
2022/05/29 04:00:56;;;;;;;9.68;2.95;;;;;;;12.78;49.05;100350.13;4137278;28;20382;-64
2022/05/29 04:02:59;;;;;;;13.80;3.05;;;;;;;12.86;49.45;100355.38;4134708;28;20046;-64
2022/05/29 04:05:04;;;;;;;9.10;2.70;;;;;;;12.83;49.31;100355.34;4137215;28;20042;-63
2022/05/29 04:07:06;;;;;;;;;;;;;;;12.53;49.36;100363.06;4120568;28;20046;-64
2022/05/29 04:13:51;;;;;;;8.43;2.40;;;;;;;12.66;49.37;100357.88;4127261;28;20062;-64
2022/05/29 04:15:54;;;;;;;10.10;2.90;;;;;;;12.77;48.73;100356.19;4124143;28;20038;-64
2022/05/29 04:17:57;;;;;;;11.43;2.50;;;;;;;12.85;48.80;100356.22;4126073;28;20046;-64
2022/05/29 04:20:00;;;;;;;9.73;3.08;;;;;;;12.83;48.46;100355.34;4120964;28;20038;-64
2022/05/29 04:22:09;;;;;;;12.13;3.15;;;;;;;12.67;48.85;100351.81;4122324;28;20050;-64
2022/05/29 04:24:12;;;;;;;10.10;3.75;;;;;;;12.65;49.28;100366.59;4129215;28;20143;-63
2022/05/29 04:26:15;;;;;;;8.20;2.80;;;;;;;12.60;49.18;100356.16;4131807;28;20042;-64
2022/05/29 04:28:19;;;;;;;7.43;2.58;;;;;;;12.41;49.65;100368.22;4131023;28;20125;-64
2022/05/29 04:30:22;;;;;;;12.23;3.00;;;;;;;12.46;49.65;100366.50;4132436;28;20038;-64
2022/05/29 04:34:45;;;;;;;10.15;2.50;;;;;;;12.34;50.36;100367.31;4125680;28;20121;-63
2022/05/29 04:36:48;;;;;;;9.23;2.50;;;;;;;12.30;50.19;100369.91;4130690;28;20040;-63
2022/05/29 04:38:52;;;;;;;13.27;2.90;;;;;;;12.27;50.42;100375.09;4123074;28;20038;-64
2022/05/29 04:40:57;;;;;;;8.65;2.63;;;;;;;12.29;50.26;100373.38;4125639;28;20058;-64
2022/05/29 04:43:00;;;;;;;11.38;2.95;;;;;;;12.28;51.00;100371.63;4135626;28;20058;-63
2022/05/29 04:45:03;;;;;;;12.43;4.13;;;;;;;12.28;50.65;100371.63;4130227;28;20038;-64
2022/05/29 04:47:06;;;;;;;11.20;2.28;;;;;;;12.27;51.86;100381.19;4143510;28;20038;-64
2022/05/29 04:49:09;;;;;;;9.75;3.08;;;;;;;12.25;51.91;100364.69;4132971;28;20054;-64
2022/05/29 04:51:12;;;;;;;12.55;2.75;;;;;;;12.28;52.33;100375.13;4107866;28;20430;-64
2022/05/29 04:53:15;;;;;;;10.65;2.72;;;;;;;12.16;53.63;100373.31;4115530;28;20135;-64
2022/05/29 04:55:20;;;;;;;7.15;2.65;;;;;;;12.20;53.05;100364.63;4128263;28;20052;-64
2022/05/29 04:57:23;;;;;;;11.90;3.20;;;;;;;12.14;54.37;100369.81;4123922;28;20091;-63
2022/05/29 04:59:26;;;;;;;8.38;3.05;;;;;;;12.00;55.48;100376.66;4125854;28;20494;-63
2022/05/29 05:01:29;;;;;;;11.60;3.38;;;;;;;11.93;55.53;100374.84;4124130;28;20054;-65
2022/05/29 05:03:32;;;;;;;9.35;2.85;;;;;;;11.90;56.09;100373.09;4122049;28;20046;-64
2022/05/29 05:05:36;;;;;;;7.95;2.70;;;;;;;11.79;56.36;100370.41;4127493;28;20046;-64
2022/05/29 05:07:39;;;;;;;9.55;2.53;;;;;;;11.79;57.38;100378.22;4128333;28;20150;-64
2022/05/29 05:09:42;;;;;;;13.82;2.75;;;;;;;11.68;58.33;100379.84;4122503;28;20125;-64
2022/05/29 05:11:46;;;;;;;8.35;2.72;;;;;;;11.54;58.49;100371.94;4125677;28;20045;-64
2022/05/29 05:13:50;;;;;;;8.75;2.53;;;;;;;11.42;59.03;100372.69;4130004;28;20050;-64
2022/05/29 05:16:00;;;;;;;11.05;3.47;;;;;;;11.28;60.70;100374.28;4132796;28;20034;-63
2022/05/29 05:18:04;;;;;;;13.00;3.92;;;;;;;11.25;62.32;100379.47;4119288;28;20046;-64
2022/05/29 05:20:08;;;;;;;16.92;3.47;;;;;;;11.31;61.35;100379.53;4124465;28;20069;-64
2022/05/29 05:22:11;;;;;;;14.87;4.40;;;;;;;11.31;61.36;100379.53;4124039;28;20459;-65
2022/05/29 05:24:14;;;;;;;11.85;4.28;;;;;;;11.11;62.22;100369.78;4122878;28;20332;-64
2022/05/29 05:26:16;;;;;;;14.43;3.83;;;;;;;11.16;62.22;100370.69;4123461;28;20046;-65
2022/05/29 05:28:21;;;;;;;12.55;3.22;;;;;;;11.02;62.85;100369.69;4128238;28;20560;-65
2022/05/29 05:30:26;;;;;;;11.38;3.15;;;;;;;11.01;63.50;100367.94;4130622;28;20040;-65
2022/05/29 05:32:28;;;;;;;;;;;;;;;10.78;64.86;100368.56;4127843;28;20038;-65
2022/05/29 05:34:31;;;;;;;13.98;3.42;;;;;;;10.87;63.98;100370.38;4123399;28;20395;-66
2022/05/29 05:36:34;;;;;;;12.80;3.58;;;;;;;10.92;63.72;100386.03;4127810;28;20390;-65
2022/05/29 05:38:37;;;;;;;13.07;3.72;;;;;;;10.93;64.59;100373.06;4127143;28;20049;-65
2022/05/29 05:40:40;;;;;;;13.60;3.92;;;;;;;11.09;63.52;100375.84;4122175;28;20046;-65
2022/05/29 05:42:43;;;;;;;10.43;3.08;;;;;;;11.00;63.68;100377.47;4109026;28;20047;-65
2022/05/29 05:44:49;;;;;;;11.55;3.53;;;;;;;10.96;64.48;100373.06;4125530;28;20035;-66
2022/05/29 05:46:54;;;;;;;6.97;2.88;;;;;;;11.02;65.49;100381.81;4125710;28;20524;-66
2022/05/29 05:49:03;;;;;;;11.48;3.70;;;;;;;11.19;62.91;100380.28;4113417;28;20051;-65
2022/05/29 05:51:06;;;;;;;9.98;2.67;;;;;;;11.14;63.14;100382.84;4116677;28;20074;-65
2022/05/29 05:53:10;;;;;;;9.13;3.22;;;;;;;11.16;64.31;100380.25;4123201;28;20413;-66
2022/05/29 05:55:13;;;;;;;10.52;2.75;;;;;;;11.26;64.11;100383.81;4120719;28;20141;-65
2022/05/29 05:57:18;;;;;;;10.15;3.40;;;;;;;11.35;63.74;100378.69;4117530;28;20043;-66
2022/05/29 05:59:21;;;;;;;10.25;2.72;;;;;;;11.41;63.88;100381.34;4139265;28;20069;-65
2022/05/29 06:01:25;;;;;;;9.88;3.40;;;;;;;11.51;61.84;100371.91;4124299;28;20130;-66
2022/05/29 06:03:33;;;;;;;10.10;3.15;;;;;;;11.49;62.99;100379.72;4123556;28;20506;-64
2022/05/29 06:05:36;;;;;;;13.43;3.03;;;;;;;11.61;61.85;100385.84;4125568;28;20046;-64
2022/05/29 06:07:39;;;;;;;11.85;2.78;;;;;;;11.67;61.21;100383.34;4124300;28;20036;-64
2022/05/29 06:09:42;;;;;;;8.10;2.83;;;;;;;11.73;62.25;100395.53;4125158;28;20045;-64
2022/05/29 06:11:45;;;;;;;15.75;3.88;;;;;;;11.76;61.80;100391.22;4126092;28;20041;-64
2022/05/29 06:13:47;;;;;;;9.20;3.50;;;;;;;11.96;60.27;100401.81;4128067;28;20049;-63
2022/05/29 06:15:51;;;;;;;11.82;3.53;;;;;;;12.02;59.91;100390.59;4125963;28;20102;-64
2022/05/29 06:17:55;;;;;;;12.02;3.55;;;;;;;11.97;60.25;100390.56;4130898;28;20592;-65
2022/05/29 06:19:59;;;;;;;13.07;3.42;;;;;;;12.10;59.96;100399.31;4127420;28;20133;-64
2022/05/29 06:22:02;;;;;;;8.73;3.17;;;;;;;12.02;61.14;100387.97;4106344;28;20098;-65
2022/05/29 06:24:06;;;;;;;11.48;3.33;;;;;;;12.12;60.45;100395.00;4118069;28;20038;-65
2022/05/29 06:26:12;;;;;;;9.45;2.85;;;;;;;12.18;60.33;100392.41;4114319;28;20043;-64
2022/05/29 06:28:15;;;;;;;11.82;3.40;;;;;;;12.30;60.73;100396.84;4124863;28;20133;-65
2022/05/29 06:30:26;;;;;;;16.38;3.75;;;;;;;12.34;59.20;100395.13;4122255;28;20101;-65
2022/05/29 06:32:28;;;;;;;10.20;3.00;;;;;;;12.33;59.96;100394.25;4131070;28;20049;-64
2022/05/29 06:34:33;;;;;;;15.88;3.40;;;;;;;12.52;58.60;100395.22;4120410;28;20397;-64
2022/05/29 06:36:36;;;;;;;8.60;3.42;;;;;;;12.47;59.26;100391.72;4124684;28;20125;-65
2022/05/29 06:38:39;;;;;;;9.70;2.88;;;;;;;12.54;57.13;100393.50;4121713;28;20034;-65
2022/05/29 06:40:45;;;;;;;12.05;3.35;;;;;;;12.45;57.78;100392.56;4126445;28;20417;-66
2022/05/29 06:42:48;;;;;;;10.90;3.63;;;;;;;12.37;59.16;100395.16;4128762;28;20468;-65
2022/05/29 06:44:51;;;;;;;10.73;2.70;;;;;;;12.48;59.38;100393.44;4116401;28;20402;-64
2022/05/29 06:46:54;;;;;;;10.93;2.85;;;;;;;12.69;58.20;100395.31;4122566;28;20517;-64
2022/05/29 06:48:57;;;;;;;7.40;2.80;;;;;;;12.66;59.18;100397.00;4140670;28;20062;-64
2022/05/29 06:51:05;;;;;;;13.38;3.40;;;;;;;12.82;56.24;100396.25;4123772;28;20595;-64
2022/05/29 06:53:09;;;;;;;10.73;2.95;;;;;;;12.63;57.09;100394.41;4123351;28;20046;-64
2022/05/29 06:55:12;;;;;;;12.93;3.15;;;;;;;12.66;57.77;100395.31;4131399;28;20459;-64
2022/05/29 06:57:36;;;;;;;12.50;3.47;;;;;;;12.78;56.06;100394.47;4125063;28;20038;-63
2022/05/29 07:06:59;;;;;;;7.00;2.45;;;;;;;12.69;56.33;100395.31;4117328;28;20042;-64
2022/05/29 07:07:01;;;;;;;12.27;2.80;;;;;;;12.80;58.33;100397.94;4115053;28;20462;-64
2022/05/29 07:09:05;;;;;;;12.38;3.40;;;;;;;12.98;57.83;100401.50;4122298;28;20536;-64
2022/05/29 07:11:15;;;;;;;10.30;2.37;;;;;;;13.08;55.77;100401.56;4130387;28;20044;-64
2022/05/29 07:13:19;;;;;;;12.02;2.78;;;;;;;13.09;54.82;100399.81;4119550;28;20290;-64
2022/05/29 07:15:22;;;;;;;9.05;2.65;;;;;;;13.11;53.54;100400.66;4127595;28;20050;-64
2022/05/29 07:17:27;;;;;;;9.18;2.78;;;;;;;13.01;53.98;100401.50;4119729;28;20045;-66
2022/05/29 07:19:30;;;;;;;9.75;2.83;;;;;;;13.07;54.35;100398.94;4125566;28;20418;-66
2022/05/29 07:21:38;;;;;;;8.73;2.30;;;;;;;13.17;53.98;100398.09;4129814;28;20093;-67
2022/05/29 07:23:44;;;;;;;14.15;2.78;;;;;;;13.27;52.98;100398.97;4125231;28;20126;-67
2022/05/29 07:25:46;;;;;;;9.98;2.45;;;;;;;13.25;52.52;100400.72;4124021;28;20041;-69
2022/05/29 07:27:49;;;;;;;10.93;2.50;;;;;;;13.13;53.45;100396.34;4109948;28;20062;-68
2022/05/29 07:29:53;;;;;;;14.43;2.95;;;;;;;13.08;53.76;100396.31;4119138;28;20086;-68
2022/05/29 07:31:56;;;;;;;9.32;2.45;;;;;;;13.16;53.22;100398.94;4129778;28;20061;-72
2022/05/29 07:33:59;;;;;;;13.00;2.85;;;;;;;13.18;53.70;100397.19;4130567;28;20034;-71
2022/05/29 07:36:02;;;;;;;9.95;2.85;;;;;;;13.30;54.52;100403.31;4114208;28;20053;-68
2022/05/29 07:38:05;;;;;;;8.35;2.47;;;;;;;13.21;53.34;100410.25;4140510;28;20125;-67
2022/05/29 07:40:11;;;;;;;8.48;2.90;;;;;;;13.34;54.14;100398.16;4127265;28;20061;-71
2022/05/29 07:44:34;;;;;;;10.15;2.65;;;;;;;13.36;52.32;100398.16;4139326;28;20038;-64
2022/05/29 07:46:37;;;;;;;11.40;2.58;;;;;;;13.33;52.44;100396.38;4107242;28;20047;-63
2022/05/29 07:48:40;;;;;;;8.32;2.78;;;;;;;13.40;51.31;100394.69;4121461;28;20093;-61
2022/05/29 07:50:43;;;;;;;8.98;2.58;;;;;;;13.43;50.66;100389.44;4120831;28;20038;-60
2022/05/29 07:52:46;;;;;;;11.32;2.97;;;;;;;13.59;50.31;100399.06;4121446;28;20557;-61
2022/05/29 07:54:49;;;;;;;7.65;2.08;;;;;;;13.48;51.17;100392.06;4126748;28;20161;-62
2022/05/29 07:56:53;;;;;;;10.05;2.65;;;;;;;13.46;50.94;100394.69;4128446;28;20052;-63
2022/05/29 07:58:56;;;;;;;9.48;2.17;;;;;;;13.43;50.58;100382.50;4119738;28;20453;-62
2022/05/29 08:00:59;;;;;;;11.55;2.17;;;;;;;13.42;51.16;100392.94;4119841;28;20060;-62
2022/05/29 08:03:03;;;;;;;6.68;2.30;;;;;;;13.33;50.20;100393.78;4126141;28;20093;-62
2022/05/29 08:05:08;;;;;;;11.90;2.90;;;;;;;13.40;50.10;100389.44;4124274;28;20473;-64
2022/05/29 08:07:11;;;;;;;4.88;1.88;;;;;;;13.25;50.07;100401.56;4141170;28;20044;-66
2022/05/29 08:09:14;;;;;;;10.60;2.53;;;;;;;13.34;49.37;100398.16;4117987;28;20453;-66
2022/05/29 08:11:18;;;;;;;10.88;2.20;;;;;;;13.19;49.66;100395.47;4137959;28;20042;-66
2022/05/29 08:13:23;;;;;;;13.13;2.63;;;;;;;13.22;49.96;100404.19;4119709;28;20047;-66
2022/05/29 08:15:26;;;;;;;6.63;1.88;;;;;;;13.15;49.69;100389.38;4116057;28;20041;-66
2022/05/29 08:17:29;;;;;;;10.07;1.90;;;;;;;13.35;50.20;100394.66;4116422;28;20062;-63
2022/05/29 08:19:33;;;;;;;10.40;2.28;;;;;;;13.72;49.21;100386.84;4121953;28;20061;-63
2022/05/29 08:21:40;;;;;;;9.15;2.20;;;;;;;13.75;49.23;100386.00;4122216;28;20073;-64
2022/05/29 08:30:37;;;;;;;9.82;2.65;;;;;;;13.83;50.29;100383.38;4124235;28;20046;-63
2022/05/29 08:30:51;;;;;;;9.18;2.72;;;;;;;13.83;49.81;100380.75;4114825;28;20053;-64
2022/05/29 08:32:54;;;;;;;9.82;2.97;;;;;;;13.95;50.37;100380.75;4123772;28;20031;-64
2022/05/29 08:34:57;;;;;;;8.68;2.78;;;;;;;14.15;50.01;100385.97;4125800;28;22079;-63
2022/05/29 08:37:00;;;;;;;7.18;2.60;;;;;;;14.40;48.35;100378.06;4126866;28;20409;-64
2022/05/29 08:39:03;;;;;;;8.77;2.13;;;;;;;14.55;48.56;100374.53;4121851;28;20038;-64
2022/05/29 08:41:08;;;;;;;10.93;2.75;;;;;;;14.88;48.15;100384.03;4129710;28;20394;-63
2022/05/29 08:43:25;;;;;;;10.70;2.63;;;;;;;14.84;49.06;100377.06;4130804;28;20478;-63
2022/05/29 08:45:34;;;;;;;12.05;2.97;;;;;;;14.83;49.85;100380.56;4131073;28;20429;-63
2022/05/29 08:47:38;;;;;;;11.88;3.15;;;;;;;14.66;46.44;100384.13;4129816;28;20455;-64
2022/05/29 08:49:43;;;;;;;12.43;2.50;;;;;;;14.40;46.89;100385.94;4131081;28;20051;-63
2022/05/29 08:52:04;;;;;;;9.52;2.78;;;;;;;14.29;46.63;100378.09;4126045;28;20137;-63
2022/05/29 08:54:11;;;;;;;13.07;2.85;;;;;;;14.23;47.67;100383.34;4129718;28;20134;-63
2022/05/29 08:56:19;;;;;;;5.18;2.20;;;;;;;14.18;47.01;100372.91;4133153;28;20077;-64
2022/05/29 08:58:30;;;;;;;8.07;2.67;;;;;;;14.08;48.24;100379.88;4123791;28;20049;-63
2022/05/29 09:00:46;;;;;;;9.75;2.28;;;;;;;14.05;48.00;100373.78;4129134;28;20445;-63
2022/05/29 09:02:59;;;;;;;8.75;2.67;;;;;;;13.89;48.00;100379.03;4121235;28;20546;-62
2022/05/29 09:05:08;;;;;;;10.88;2.30;;;;;;;13.93;48.00;100375.53;4131066;28;20129;-63
2022/05/29 09:07:17;;;;;;;7.55;2.20;;;;;;;13.86;47.45;100368.56;4129688;28;20046;-63
2022/05/29 09:09:27;;;;;;;9.68;2.20;;;;;;;13.87;48.53;100372.06;4132003;28;20150;-63
2022/05/29 09:11:35;;;;;;;9.80;2.78;;;;;;;13.81;49.07;100367.69;4132649;28;20133;-63
2022/05/29 09:13:43;;;;;;;15.27;3.08;;;;;;;13.96;48.17;100359.84;4132502;28;20043;-63
2022/05/29 09:15:51;;;;;;;9.45;2.60;;;;;;;14.03;47.40;100365.06;4127907;28;20498;-63
2022/05/29 09:17:58;;;;;;;7.88;2.60;;;;;;;14.14;46.52;100360.69;4126339;28;20034;-63
2022/05/29 09:20:06;;;;;;;10.15;3.17;;;;;;;14.09;46.06;100354.59;4130991;28;20053;-63
2022/05/29 09:22:18;;;;;;;8.50;2.92;;;;;;;14.17;45.50;100355.47;4133539;28;20073;-63
2022/05/29 09:24:39;;;;;;;7.57;2.00;;;;;;;14.31;45.52;100356.28;4133778;28;20065;-63
2022/05/29 09:26:42;;;;;;;7.80;2.22;;;;;;;14.61;45.74;100349.22;4127429;28;20108;-63
2022/05/29 09:28:45;;;;;;;12.57;2.78;;;;;;;15.25;43.96;100346.28;4125623;28;20539;-63
2022/05/29 09:30:50;;;;;;;12.25;2.78;;;;;;;15.30;44.11;100347.13;4133946;28;20508;-63
2022/05/29 09:32:57;;;;;;;8.00;2.40;;;;;;;15.42;43.60;100333.94;4133339;28;20064;-63
2022/05/29 09:35:07;;;;;;;11.27;2.95;;;;;;;15.76;43.90;100338.03;4131656;28;20064;-65
2022/05/29 09:37:18;;;;;;;8.93;2.28;;;;;;;15.88;43.28;100344.03;4125194;28;20406;-63
2022/05/29 09:39:27;;;;;;;8.88;2.25;;;;;;;15.67;42.81;100344.22;4116282;28;20050;-64
2022/05/29 09:41:37;;;;;;;6.50;2.00;;;;;;;15.30;44.36;100336.63;4120035;28;20129;-63
2022/05/29 09:43:40;;;;;;;6.47;1.90;;;;;;;15.38;43.96;100342.69;4127188;28;20516;-63
2022/05/29 09:45:43;;;;;;;8.18;2.13;;;;;;;15.23;43.94;100338.44;4133499;28;20042;-63
2022/05/29 09:50:13;;;;;;;9.15;2.20;;;;;;;15.11;42.70;100341.13;4125333;28;20046;-65
2022/05/29 09:52:23;;;;;;;7.47;2.17;;;;;;;15.03;42.37;100340.31;4123605;28;20133;-63
2022/05/29 09:54:31;;;;;;;6.03;1.60;;;;;;;14.80;43.76;100336.94;4116060;28;20047;-63
2022/05/29 09:56:36;;;;;;;9.15;2.45;;;;;;;14.79;43.83;100340.44;4115402;28;20070;-65
2022/05/29 09:58:53;;;;;;;9.50;2.42;;;;;;;14.81;43.22;100329.97;4121545;28;20589;-63
2022/05/29 10:01:01;;;;;;;9.82;2.50;;;;;;;14.86;43.28;100335.19;4134625;28;20039;-63
2022/05/29 10:03:08;;;;;;;5.03;1.70;;;;;;;14.75;43.92;100332.63;4130026;28;20057;-63
2022/05/29 10:05:23;;;;;;;10.00;1.98;;;;;;;14.96;42.13;100323.78;4133179;28;20485;-63
2022/05/29 10:07:36;;;;;;;9.63;2.72;;;;;;;15.01;42.62;100320.25;4133381;28;20490;-63
2022/05/29 10:09:58;;;;;;;9.18;1.92;;;;;;;15.42;40.91;100330.44;4133070;28;20109;-63